Gate City, Virginia
Current Conditions -  °F | °C
As of 3:53 PM on Tuesday 21 Oct 2014 (Local Time) from KTRI Reporting Station
Broken Clouds Broken Clouds  
Wind Chill: 60°   Ceiling: 5500
Heat Index: 60°   Visibility: 10mi
Dew Point: 41°   Wind: 13mph
Humidity: 49%   Direction: 310°NW
Pressure: 29.97"   Gusts: NA
Location:  36.64°N, 82.58°W
Report Text: KTRI 211953Z 31011KT 10SM BKN055 16/05 A2997 RMK AO2 SLP137 T01560050
Loading
Personal Weather Stations






























Interactive Weather Map
Tropical Storm Tracking
New forecast layout! Learn more

10-Day Weather Forecast

Advertisements
Track Severe Weather on mobile